MRLB

Daniel Oduber Quirós International Airport

Airport
ICAO code
MRLB
IATA Code
LIR
Summary
ICAO Region
CARSAM
ICAO Territory
Location

Liberia, Guanacaste Province

Serving
Liberia
Elevation
269 ft
Coordinates
10° 35' 40" N , 85° 32' 39" W
KCC
Metar
Observation
MRLB 270100Z 05018KT CAVOK 27/18 A2982
Station
Liberia
Date/Time
2023-01-27 01:00:00
Wind direction
50°
Wind speed
18 kts
Lowest cloud amount
clouds and visibility OK
Temperature
27°C
Dew point
18°C
Humidity
57%
Weather condition
n/a

Daniel Oduber Quirós International Airport, also known as Liberia International Airport, is one of four international airports in Costa Rica. The airport is located in the city of Liberia in Guanacaste Province.

Climatology

Tropical savannah climate (Köppen climate classification Aw)

Runways

Designator Length Width Surface Rops
7/25 2750 45 ASP Yes/Yes

Airport map

Aerial View

SKYbrary Partners:

Safety knowledge contributed by: